Time;durP1;ratioP1;P1;durP2;ratioP2;P2;SDS_P1;SDS_P2;PMS_P1;PMS_P2;Temp;Humidity;BMP_temperature;BMP_pressure;BME280_temperature;BME280_humidity;BME280_pressure;Samples;Min_cycle;Max_cycle;Signal;HPM_P1;HPM_P2
2024/04/06 00:00:47;;;;;;;7.70;2.80;;;;;;;;;;6151850;23;20025;-82
2024/04/06 00:03:12;;;;;;;5.30;3.08;;;;;;;;;;6139979;23;20044;-81
2024/04/06 00:05:38;;;;;;;4.72;2.83;;;;;;;;;;6146609;23;20494;-81
2024/04/06 00:08:03;;;;;;;4.65;2.65;;;;;;;;;;6144563;23;20364;-80
2024/04/06 00:10:29;;;;;;;4.55;2.83;;;;;;;;;;6148275;23;20024;-76
2024/04/06 00:12:54;;;;;;;5.10;2.80;;;;;;;;;;6150395;23;20025;-82
2024/04/06 00:15:20;;;;;;;4.82;3.10;;;;;;;;;;6143386;23;20029;-81
2024/04/06 00:17:45;;;;;;;6.32;2.85;;;;;;;;;;6146260;23;20021;-81
2024/04/06 00:20:11;;;;;;;6.35;2.95;;;;;;;;;;6137165;23;20017;-80
2024/04/06 00:22:36;;;;;;;7.25;2.75;;;;;;;;;;6148224;23;20025;-79
2024/04/06 00:25:01;;;;;;;4.18;2.47;;;;;;;;;;6148919;23;20439;-76
2024/04/06 00:27:28;;;;;;;7.38;2.90;;;;;;;;;;6141471;23;20328;-77
2024/04/06 00:29:53;;;;;;;5.40;2.90;;;;;;;;;;6123887;23;20021;-79
2024/04/06 00:32:19;;;;;;;6.90;3.10;;;;;;;;;;6135966;23;20031;-77
2024/04/06 00:34:44;;;;;;;3.78;2.60;;;;;;;;;;6143832;23;20048;-76
2024/04/06 00:37:09;;;;;;;5.97;2.72;;;;;;;;;;6147286;23;20344;-75
2024/04/06 00:39:35;;;;;;;4.75;2.60;;;;;;;;;;6140430;23;20029;-78
2024/04/06 00:42:00;;;;;;;3.78;2.40;;;;;;;;;;6149902;23;20025;-78
2024/04/06 00:44:26;;;;;;;6.57;2.65;;;;;;;;;;6141161;23;20470;-76
2024/04/06 00:46:54;;;;;;;6.00;2.58;;;;;;;;;;6144256;23;20032;-75
2024/04/06 00:49:20;;;;;;;5.15;2.38;;;;;;;;;;6143459;23;20021;-77
2024/04/06 00:51:45;;;;;;;5.72;2.60;;;;;;;;;;6141322;23;20402;-76
2024/04/06 00:54:11;;;;;;;4.70;2.20;;;;;;;;;;6148082;23;20880;-74
2024/04/06 00:56:36;;;;;;;7.20;2.70;;;;;;;;;;6117452;23;20021;-77
2024/04/06 00:59:02;;;;;;;5.60;2.30;;;;;;;;;;6149293;23;20024;-77
2024/04/06 01:01:28;;;;;;;5.07;2.30;;;;;;;;;;6143982;23;20025;-76
2024/04/06 01:03:53;;;;;;;7.03;2.92;;;;;;;;;;6115668;23;20021;-77
2024/04/06 01:06:19;;;;;;;9.27;2.60;;;;;;;;;;6124632;23;20549;-76
2024/04/06 01:08:44;;;;;;;9.10;2.63;;;;;;;;;;6142168;23;20494;-75
2024/04/06 01:11:10;;;;;;;3.90;2.40;;;;;;;;;;6148855;23;20780;-75
2024/04/06 01:13:35;;;;;;;6.35;2.42;;;;;;;;;;6119610;23;20100;-76
2024/04/06 01:16:01;;;;;;;5.38;2.65;;;;;;;;;;6144637;23;20025;-75
2024/04/06 01:18:26;;;;;;;6.82;2.28;;;;;;;;;;6144590;23;20087;-74
2024/04/06 01:20:53;;;;;;;6.43;2.20;;;;;;;;;;6143110;23;20056;-74
2024/04/06 01:23:19;;;;;;;6.78;2.00;;;;;;;;;;6149653;23;20029;-75
2024/04/06 01:25:45;;;;;;;5.00;2.25;;;;;;;;;;6142859;23;20141;-74
2024/04/06 01:28:10;;;;;;;5.10;2.05;;;;;;;;;;6126053;23;20021;-74
2024/04/06 01:30:38;;;;;;;7.28;2.50;;;;;;;;;;6145857;23;20032;-75
2024/04/06 01:33:04;;;;;;;5.13;2.17;;;;;;;;;;6141940;23;20017;-74
2024/04/06 01:35:29;;;;;;;4.28;2.50;;;;;;;;;;6150939;23;20087;-74
2024/04/06 01:37:55;;;;;;;3.72;2.00;;;;;;;;;;6144645;23;20035;-75
2024/04/06 01:40:20;;;;;;;4.40;2.22;;;;;;;;;;6150478;23;20017;-75
2024/04/06 01:42:47;;;;;;;3.97;2.20;;;;;;;;;;6146506;23;20025;-77
2024/04/06 01:45:12;;;;;;;5.78;2.40;;;;;;;;;;6139417;23;20759;-75
2024/04/06 01:47:38;;;;;;;5.97;2.10;;;;;;;;;;6126698;23;20723;-77
2024/04/06 01:50:07;;;;;;;3.63;1.92;;;;;;;;;;6144661;23;20021;-76
2024/04/06 01:52:32;;;;;;;5.80;2.20;;;;;;;;;;6151292;23;20025;-76
2024/04/06 01:55:01;;;;;;;3.58;2.10;;;;;;;;;;6151780;23;20617;-76
2024/04/06 01:57:27;;;;;;;5.43;2.17;;;;;;;;;;6164399;23;20028;-76
2024/04/06 01:59:52;;;;;;;4.05;2.50;;;;;;;;;;6146901;23;20021;-75
2024/04/06 02:02:18;;;;;;;3.58;1.92;;;;;;;;;;6143844;23;20025;-76
2024/04/06 02:04:46;;;;;;;5.65;2.30;;;;;;;;;;6126681;23;20367;-76
2024/04/06 02:07:12;;;;;;;4.82;2.20;;;;;;;;;;6144832;23;20025;-77
2024/04/06 02:09:37;;;;;;;3.80;2.05;;;;;;;;;;6150077;23;20025;-77
2024/04/06 02:12:03;;;;;;;4.35;2.38;;;;;;;;;;6121250;23;20024;-74
2024/04/06 02:14:28;;;;;;;6.60;2.17;;;;;;;;;;6139480;23;20059;-75
2024/04/06 02:16:53;;;;;;;4.50;2.25;;;;;;;;;;6150220;23;20025;-74
2024/04/06 02:19:19;;;;;;;3.75;2.03;;;;;;;;;;6144171;23;20028;-75
2024/04/06 02:21:44;;;;;;;3.55;2.25;;;;;;;;;;6149688;23;20058;-73
2024/04/06 02:24:10;;;;;;;5.03;2.00;;;;;;;;;;6150867;23;20091;-75
2024/04/06 02:26:36;;;;;;;4.97;1.83;;;;;;;;;;6114284;23;20029;-74
2024/04/06 02:29:01;;;;;;;3.80;2.03;;;;;;;;;;6146312;23;20645;-74
2024/04/06 02:31:27;;;;;;;3.95;2.30;;;;;;;;;;6142975;23;20032;-74
2024/04/06 02:33:53;;;;;;;4.50;1.80;;;;;;;;;;6126586;23;20759;-76
2024/04/06 02:36:19;;;;;;;6.43;2.00;;;;;;;;;;6174640;23;20660;-75
2024/04/06 02:38:44;;;;;;;4.15;2.15;;;;;;;;;;6144468;23;20028;-76
2024/04/06 02:41:09;;;;;;;5.65;2.40;;;;;;;;;;6145185;23;20032;-75
2024/04/06 02:43:35;;;;;;;4.40;2.42;;;;;;;;;;6138676;23;20029;-75
2024/04/06 02:46:00;;;;;;;6.70;2.38;;;;;;;;;;6150852;23;20021;-75
2024/04/06 02:48:26;;;;;;;5.28;2.17;;;;;;;;;;6126060;23;20032;-76
2024/04/06 02:50:51;;;;;;;4.72;2.53;;;;;;;;;;6143739;23;20021;-75
2024/04/06 02:53:16;;;;;;;4.82;2.38;;;;;;;;;;6149977;23;20531;-76
2024/04/06 02:55:42;;;;;;;6.40;2.30;;;;;;;;;;6138959;23;20021;-74
2024/04/06 02:58:08;;;;;;;4.65;2.20;;;;;;;;;;6145868;23;20087;-75
2024/04/06 03:00:34;;;;;;;3.53;2.17;;;;;;;;;;6150296;23;20021;-75
2024/04/06 03:03:00;;;;;;;7.00;2.60;;;;;;;;;;6143213;23;20025;-76
2024/04/06 03:05:25;;;;;;;3.85;1.95;;;;;;;;;;6125244;23;20084;-75
2024/04/06 03:07:51;;;;;;;5.55;2.08;;;;;;;;;;6143912;23;20127;-76
2024/04/06 03:10:16;;;;;;;3.95;2.28;;;;;;;;;;6143682;23;20573;-75
2024/04/06 03:12:42;;;;;;;4.90;2.08;;;;;;;;;;6144696;23;20029;-73
2024/04/06 03:15:08;;;;;;;3.70;2.20;;;;;;;;;;6147064;23;20096;-76
2024/04/06 03:17:33;;;;;;;5.38;2.08;;;;;;;;;;6150374;23;20024;-75
2024/04/06 03:19:58;;;;;;;4.50;2.47;;;;;;;;;;6119279;23;20017;-76
2024/04/06 03:22:24;;;;;;;5.30;2.10;;;;;;;;;;6122041;23;20068;-76
2024/04/06 03:24:50;;;;;;;3.88;2.28;;;;;;;;;;6139582;23;20099;-76
2024/04/06 03:27:15;;;;;;;2.47;1.92;;;;;;;;;;6148711;23;20017;-76
2024/04/06 03:29:41;;;;;;;4.38;2.20;;;;;;;;;;6150680;23;20412;-75
2024/04/06 03:32:06;;;;;;;4.07;1.95;;;;;;;;;;6142590;23;20451;-74
2024/04/06 03:34:32;;;;;;;4.38;2.08;;;;;;;;;;6150582;23;20025;-75
2024/04/06 03:36:58;;;;;;;3.83;2.15;;;;;;;;;;6136178;23;20036;-76
2024/04/06 03:39:23;;;;;;;4.70;2.22;;;;;;;;;;6145054;23;20672;-76
2024/04/06 03:41:48;;;;;;;4.68;2.22;;;;;;;;;;6125904;23;20021;-76
2024/04/06 03:44:14;;;;;;;5.90;2.38;;;;;;;;;;6141638;23;20032;-75
2024/04/06 03:46:39;;;;;;;3.53;2.33;;;;;;;;;;6150432;23;20021;-76
2024/04/06 03:49:05;;;;;;;7.75;2.60;;;;;;;;;;6142222;23;20025;-75
2024/04/06 03:51:30;;;;;;;4.55;2.22;;;;;;;;;;6144751;23;20032;-75
2024/04/06 03:53:56;;;;;;;4.10;2.53;;;;;;;;;;6144930;23;20033;-75
2024/04/06 03:56:21;;;;;;;4.45;2.40;;;;;;;;;;6142749;23;20025;-74
2024/04/06 03:58:46;;;;;;;3.97;2.47;;;;;;;;;;6149951;23;20032;-75
2024/04/06 04:01:12;;;;;;;3.10;2.47;;;;;;;;;;6142494;23;20021;-75
2024/04/06 04:03:38;;;;;;;4.10;2.40;;;;;;;;;;6149755;23;20147;-76
2024/04/06 04:06:04;;;;;;;4.45;2.30;;;;;;;;;;6121333;23;20028;-74
2024/04/06 04:08:30;;;;;;;4.85;2.67;;;;;;;;;;6114459;23;20487;-76
2024/04/06 04:10:56;;;;;;;5.45;2.55;;;;;;;;;;6150419;23;20089;-75
2024/04/06 04:13:23;;;;;;;3.55;2.25;;;;;;;;;;6142047;23;20036;-74
2024/04/06 04:15:49;;;;;;;3.20;1.77;;;;;;;;;;6149790;23;20032;-74
2024/04/06 04:18:15;;;;;;;4.97;2.97;;;;;;;;;;6149081;23;20025;-74
2024/04/06 04:20:42;;;;;;;5.63;2.90;;;;;;;;;;6137404;23;20029;-74
2024/04/06 04:23:07;;;;;;;5.18;2.72;;;;;;;;;;6121703;23;20111;-75
2024/04/06 04:25:33;;;;;;;5.88;3.75;;;;;;;;;;6142441;23;20672;-77
2024/04/06 04:27:59;;;;;;;5.00;2.70;;;;;;;;;;6149965;23;20068;-77
2024/04/06 04:30:25;;;;;;;7.30;3.10;;;;;;;;;;6121098;23;20451;-76
2024/04/06 04:32:51;;;;;;;4.40;2.42;;;;;;;;;;6146620;23;20112;-75
2024/04/06 04:35:17;;;;;;;5.72;2.65;;;;;;;;;;6144220;23;20025;-76
2024/04/06 04:37:42;;;;;;;5.90;2.53;;;;;;;;;;6142628;23;20024;-76
2024/04/06 04:40:08;;;;;;;4.50;2.40;;;;;;;;;;6151982;23;20021;-77
2024/04/06 04:42:34;;;;;;;9.55;2.83;;;;;;;;;;6145107;23;20043;-75
2024/04/06 04:45:03;;;;;;;4.72;2.70;;;;;;;;;;6126112;23;20025;-75
2024/04/06 04:47:29;;;;;;;6.68;2.50;;;;;;;;;;6148768;23;20087;-74
2024/04/06 04:49:55;;;;;;;4.72;2.47;;;;;;;;;;6138516;23;20021;-77
2024/04/06 04:52:20;;;;;;;4.88;2.53;;;;;;;;;;6150733;23;20029;-76
2024/04/06 04:54:45;;;;;;;3.92;2.60;;;;;;;;;;6145799;23;20064;-77
2024/04/06 04:57:11;;;;;;;3.28;2.38;;;;;;;;;;6125930;23;20024;-76
2024/04/06 04:59:36;;;;;;;4.00;2.20;;;;;;;;;;6151735;23;20047;-76
2024/04/06 05:02:02;;;;;;;7.50;2.75;;;;;;;;;;6116795;23;20096;-74
2024/04/06 05:04:28;;;;;;;4.35;2.20;;;;;;;;;;6146095;23;20057;-77
2024/04/06 05:06:53;;;;;;;5.28;2.15;;;;;;;;;;6144458;23;20025;-75
2024/04/06 05:09:18;;;;;;;4.90;2.38;;;;;;;;;;6150525;23;20027;-77
2024/04/06 05:11:46;;;;;;;5.05;2.15;;;;;;;;;;6151421;23;20091;-74
2024/04/06 05:14:11;;;;;;;4.68;2.63;;;;;;;;;;6143535;23;20021;-76
2024/04/06 05:16:37;;;;;;;5.07;2.30;;;;;;;;;;6146984;23;20074;-74
2024/04/06 05:19:05;;;;;;;6.15;2.60;;;;;;;;;;6140258;23;21727;-75
2024/04/06 05:21:31;;;;;;;5.65;2.88;;;;;;;;;;6126599;23;20029;-75
2024/04/06 05:23:57;;;;;;;4.93;2.72;;;;;;;;;;6150984;23;20099;-76
2024/04/06 05:26:23;;;;;;;3.65;2.17;;;;;;;;;;6144137;23;20025;-76
2024/04/06 05:28:48;;;;;;;3.10;2.28;;;;;;;;;;6126744;23;20028;-77
2024/04/06 05:31:14;;;;;;;7.85;2.85;;;;;;;;;;6138507;23;20025;-74
2024/04/06 05:33:39;;;;;;;7.00;2.75;;;;;;;;;;6146991;23;20076;-75
2024/04/06 05:36:06;;;;;;;7.05;2.67;;;;;;;;;;6124988;23;20025;-77
2024/04/06 05:38:32;;;;;;;3.50;2.10;;;;;;;;;;6149588;23;20029;-74
2024/04/06 05:40:57;;;;;;;4.55;2.40;;;;;;;;;;6151559;23;20031;-75
2024/04/06 05:43:23;;;;;;;4.55;2.53;;;;;;;;;;6118429;23;20028;-74
2024/04/06 05:45:58;;;;;;;4.20;2.58;;;;;;;;;;6146738;23;20024;-76
2024/04/06 05:48:23;;;;;;;5.95;3.22;;;;;;;;;;6139425;23;20048;-75
2024/04/06 05:50:48;;;;;;;7.07;2.45;;;;;;;;;;6150511;23;20557;-77
2024/04/06 05:53:14;;;;;;;4.30;2.75;;;;;;;;;;6150255;23;20021;-76
2024/04/06 05:55:39;;;;;;;6.72;2.65;;;;;;;;;;6143675;23;20023;-76
2024/04/06 05:58:05;;;;;;;5.00;2.78;;;;;;;;;;6151095;23;20017;-77
2024/04/06 06:00:31;;;;;;;3.95;2.45;;;;;;;;;;6138421;23;20464;-76
2024/04/06 06:02:56;;;;;;;6.18;3.33;;;;;;;;;;6148195;23;20032;-77
2024/04/06 06:05:22;;;;;;;8.18;2.67;;;;;;;;;;6125854;23;20025;-76
2024/04/06 06:07:48;;;;;;;5.70;2.70;;;;;;;;;;6144224;23;20470;-76
2024/04/06 06:10:14;;;;;;;4.80;3.00;;;;;;;;;;6149559;23;20031;-75
2024/04/06 06:12:39;;;;;;;4.30;2.35;;;;;;;;;;6142626;23;20024;-77
2024/04/06 06:15:05;;;;;;;3.38;2.30;;;;;;;;;;6142780;23;20028;-75
2024/04/06 06:17:31;;;;;;;5.72;2.45;;;;;;;;;;6150019;23;20053;-76
2024/04/06 06:19:56;;;;;;;5.82;2.40;;;;;;;;;;6119176;23;20025;-76
2024/04/06 06:22:22;;;;;;;5.40;2.40;;;;;;;;;;6149958;23;20720;-75
2024/04/06 06:24:48;;;;;;;4.75;2.20;;;;;;;;;;6118173;23;20573;-76
2024/04/06 06:27:13;;;;;;;4.57;2.40;;;;;;;;;;6144571;23;20407;-74
2024/04/06 06:29:38;;;;;;;3.92;2.10;;;;;;;;;;6140982;23;20072;-75
2024/04/06 06:32:04;;;;;;;4.90;2.20;;;;;;;;;;6146568;23;20025;-75
2024/04/06 06:34:30;;;;;;;3.05;2.20;;;;;;;;;;6150822;23;20017;-77
2024/04/06 06:36:55;;;;;;;5.05;2.45;;;;;;;;;;6142610;23;20025;-77
2024/04/06 06:39:21;;;;;;;6.05;2.58;;;;;;;;;;6149933;23;20021;-76
2024/04/06 06:41:47;;;;;;;4.45;2.38;;;;;;;;;;6115659;23;20021;-75
2024/04/06 06:44:13;;;;;;;4.53;2.28;;;;;;;;;;6147685;23;20347;-76
2024/04/06 06:46:38;;;;;;;4.38;2.60;;;;;;;;;;6151005;23;20056;-77
2024/04/06 06:49:04;;;;;;;7.70;2.80;;;;;;;;;;6144076;23;20025;-76
2024/04/06 06:51:29;;;;;;;5.82;2.30;;;;;;;;;;6148669;23;20396;-77
2024/04/06 06:53:55;;;;;;;3.85;2.13;;;;;;;;;;6141195;23;20021;-73
2024/04/06 06:56:22;;;;;;;3.25;2.10;;;;;;;;;;6149169;23;20056;-78
2024/04/06 06:58:48;;;;;;;4.72;2.40;;;;;;;;;;6156451;23;20028;-76
2024/04/06 07:01:14;;;;;;;4.00;2.20;;;;;;;;;;6123146;23;20032;-79
2024/04/06 07:03:39;;;;;;;6.30;2.92;;;;;;;;;;6128721;23;20029;-79
2024/04/06 07:06:07;;;;;;;6.43;2.92;;;;;;;;;;6144814;23;20485;-80
2024/04/06 07:08:33;;;;;;;3.25;1.80;;;;;;;;;;6148557;23;20029;-77
2024/04/06 07:11:04;;;;;;;3.42;1.90;;;;;;;;;;6146027;23;20099;-80
2024/04/06 07:13:31;;;;;;;5.22;2.13;;;;;;;;;;6144070;23;20028;-80
2024/04/06 07:16:12;;;;;;;4.60;2.08;;;;;;;;;;6151433;23;20041;-80
2024/04/06 07:18:38;;;;;;;4.97;2.22;;;;;;;;;;6169308;23;20021;-80
2024/04/06 07:21:04;;;;;;;4.13;1.90;;;;;;;;;;6150795;23;20020;-81
2024/04/06 07:23:30;;;;;;;7.72;2.20;;;;;;;;;;6141149;23;20043;-80
2024/04/06 07:25:55;;;;;;;6.15;2.17;;;;;;;;;;6170570;23;20025;-78
2024/04/06 07:28:20;;;;;;;3.50;1.70;;;;;;;;;;6150740;23;20455;-80
2024/04/06 07:30:46;;;;;;;5.38;1.70;;;;;;;;;;6144856;23;20468;-81
2024/04/06 07:33:12;;;;;;;5.13;1.88;;;;;;;;;;6150671;23;20593;-81
2024/04/06 07:35:37;;;;;;;4.88;1.77;;;;;;;;;;6145685;23;20266;-79
2024/04/06 07:38:03;;;;;;;4.70;2.05;;;;;;;;;;6149618;23;20107;-75
2024/04/06 07:40:28;;;;;;;2.72;1.70;;;;;;;;;;6149614;23;20313;-80
2024/04/06 07:42:54;;;;;;;3.42;1.80;;;;;;;;;;6144770;23;20051;-79
2024/04/06 07:45:19;;;;;;;6.60;2.05;;;;;;;;;;6154772;23;20087;-79
2024/04/06 07:47:45;;;;;;;4.07;1.80;;;;;;;;;;6146491;23;20060;-82
2024/04/06 07:50:10;;;;;;;4.00;1.73;;;;;;;;;;6152256;23;20036;-81
2024/04/06 07:52:35;;;;;;;5.95;2.17;;;;;;;;;;6150352;23;20035;-80
2024/04/06 07:55:01;;;;;;;4.38;1.70;;;;;;;;;;6144958;23;20025;-77
2024/04/06 07:57:27;;;;;;;4.35;1.92;;;;;;;;;;6151352;23;20032;-81
2024/04/06 07:59:52;;;;;;;3.08;1.50;;;;;;;;;;6144411;23;20029;-79
2024/04/06 08:02:17;;;;;;;6.05;1.70;;;;;;;;;;6146144;23;20967;-83
2024/04/06 08:04:44;;;;;;;4.88;2.00;;;;;;;;;;6146438;23;20025;-78
2024/04/06 08:07:10;;;;;;;3.13;1.77;;;;;;;;;;6169807;23;20024;-80
2024/04/06 08:09:36;;;;;;;4.13;1.80;;;;;;;;;;6128599;23;20021;-80
2024/04/06 08:12:01;;;;;;;4.20;2.15;;;;;;;;;;6123804;23;20021;-80
2024/04/06 08:14:27;;;;;;;5.35;1.60;;;;;;;;;;6153143;23;20047;-83
2024/04/06 08:16:52;;;;;;;6.13;1.50;;;;;;;;;;6141772;23;20021;-78
2024/04/06 08:19:18;;;;;;;4.85;1.90;;;;;;;;;;6147049;23;20442;-81
2024/04/06 08:21:44;;;;;;;4.22;1.67;;;;;;;;;;6153004;23;20021;-74
2024/04/06 08:24:09;;;;;;;3.65;2.10;;;;;;;;;;6122229;23;20021;-82
2024/04/06 08:26:35;;;;;;;2.20;1.50;;;;;;;;;;6152382;23;20083;-79
2024/04/06 08:29:02;;;;;;;6.70;2.30;;;;;;;;;;6147796;23;20108;-78
2024/04/06 08:31:28;;;;;;;5.00;1.70;;;;;;;;;;6170813;23;20517;-79
2024/04/06 08:33:53;;;;;;;4.93;1.88;;;;;;;;;;6150826;23;20017;-79
2024/04/06 08:36:19;;;;;;;3.58;1.50;;;;;;;;;;6144971;23;20036;-77
2024/04/06 08:38:44;;;;;;;4.47;1.77;;;;;;;;;;6152797;23;20408;-78
2024/04/06 08:41:10;;;;;;;5.28;2.30;;;;;;;;;;6145067;23;20017;-78
2024/04/06 08:43:36;;;;;;;3.22;1.60;;;;;;;;;;6149533;23;20035;-81
2024/04/06 08:46:03;;;;;;;3.33;1.38;;;;;;;;;;6147661;23;20494;-82
2024/04/06 08:48:29;;;;;;;3.00;1.52;;;;;;;;;;6144707;23;20451;-81
2024/04/06 08:50:55;;;;;;;2.58;1.63;;;;;;;;;;6151876;23;20064;-79
2024/04/06 08:53:21;;;;;;;3.47;1.52;;;;;;;;;;6145727;23;20401;-79
2024/04/06 08:55:47;;;;;;;2.85;1.55;;;;;;;;;;6152345;23;20083;-82
2024/04/06 08:58:13;;;;;;;6.53;1.77;;;;;;;;;;6119784;23;20021;-78
2024/04/06 09:00:41;;;;;;;6.15;2.05;;;;;;;;;;6144243;23;20028;-82
2024/04/06 09:03:07;;;;;;;4.88;1.60;;;;;;;;;;6152272;23;20025;-78
2024/04/06 09:05:33;;;;;;;5.13;1.55;;;;;;;;;;6145272;23;20447;-79
2024/04/06 09:07:59;;;;;;;3.72;1.40;;;;;;;;;;6153077;23;20071;-80
2024/04/06 09:10:25;;;;;;;6.40;1.90;;;;;;;;;;6144852;23;20972;-81
2024/04/06 09:12:50;;;;;;;4.47;1.60;;;;;;;;;;6147637;23;20021;-79
2024/04/06 09:15:17;;;;;;;3.75;1.90;;;;;;;;;;6147313;23;20100;-80
2024/04/06 09:17:43;;;;;;;6.57;1.60;;;;;;;;;;6145698;23;20021;-77
2024/04/06 09:20:08;;;;;;;3.50;1.60;;;;;;;;;;6152167;23;20024;-80
2024/04/06 09:22:34;;;;;;;5.10;1.70;;;;;;;;;;6145664;23;20021;-80
2024/04/06 09:25:04;;;;;;;3.58;1.80;;;;;;;;;;6152440;23;20191;-79
2024/04/06 09:27:31;;;;;;;6.68;1.88;;;;;;;;;;6148400;23;20107;-81
2024/04/06 09:29:57;;;;;;;4.63;1.85;;;;;;;;;;6140718;23;20128;-78
2024/04/06 09:32:23;;;;;;;5.15;1.73;;;;;;;;;;6151602;23;20472;-76
2024/04/06 09:34:50;;;;;;;5.22;1.80;;;;;;;;;;6144799;23;20040;-81
2024/04/06 09:37:19;;;;;;;3.42;1.60;;;;;;;;;;6127585;23;20313;-83
2024/04/06 09:39:45;;;;;;;3.65;1.73;;;;;;;;;;6146685;23;20037;-76
2024/04/06 09:42:12;;;;;;;4.00;1.58;;;;;;;;;;6144284;23;20031;-75
2024/04/06 09:44:38;;;;;;;6.38;2.08;;;;;;;;;;6149027;23;20025;-77
2024/04/06 09:47:04;;;;;;;4.38;1.77;;;;;;;;;;6145976;23;20028;-80
2024/04/06 09:49:31;;;;;;;3.80;2.00;;;;;;;;;;6151552;23;20101;-81
2024/04/06 09:51:57;;;;;;;4.90;1.58;;;;;;;;;;6145643;23;20371;-78
2024/04/06 09:54:23;;;;;;;6.80;1.52;;;;;;;;;;6149226;23;20025;-79
2024/04/06 09:56:49;;;;;;;5.38;1.52;;;;;;;;;;6144786;23;20329;-81
2024/04/06 09:59:26;;;;;;;6.15;1.73;;;;;;;;;;6140903;23;20096;-83
2024/04/06 10:01:59;;;;;;;3.45;1.50;;;;;;;;;;6150732;23;20056;-80
2024/04/06 10:04:25;;;;;;;3.17;1.70;;;;;;;;;;6143360;23;20025;-81
2024/04/06 10:06:51;;;;;;;2.90;1.52;;;;;;;;;;6151163;23;20025;-81
2024/04/06 10:09:17;;;;;;;3.45;1.50;;;;;;;;;;6141125;23;20021;-80
2024/04/06 10:11:42;;;;;;;4.22;1.60;;;;;;;;;;6147576;23;20076;-77
2024/04/06 10:14:09;;;;;;;5.65;1.65;;;;;;;;;;6152383;23;20025;-81
2024/04/06 10:16:36;;;;;;;2.55;1.60;;;;;;;;;;6144721;23;20017;-81
2024/04/06 10:19:02;;;;;;;4.13;1.80;;;;;;;;;;6151989;23;20025;-77
2024/04/06 10:21:34;;;;;;;3.75;1.40;;;;;;;;;;6143051;23;20032;-80
2024/04/06 10:24:05;;;;;;;3.88;1.70;;;;;;;;;;6148202;23;20075;-78
2024/04/06 10:26:33;;;;;;;2.97;1.60;;;;;;;;;;6149227;23;20036;-79
2024/04/06 10:28:59;;;;;;;4.53;1.55;;;;;;;;;;6143518;23;20033;-81
2024/04/06 10:31:24;;;;;;;4.63;1.67;;;;;;;;;;6151856;23;20056;-80
2024/04/06 10:33:50;;;;;;;4.97;1.80;;;;;;;;;;6143670;23;20661;-80
2024/04/06 10:36:15;;;;;;;3.45;1.65;;;;;;;;;;6150826;23;20673;-76
2024/04/06 10:38:44;;;;;;;5.05;1.77;;;;;;;;;;6115655;23;20031;-77
2024/04/06 10:41:09;;;;;;;6.65;1.83;;;;;;;;;;6118999;23;20071;-82
2024/04/06 10:43:35;;;;;;;6.63;1.70;;;;;;;;;;6149366;23;20025;-80
2024/04/06 10:46:00;;;;;;;4.88;2.20;;;;;;;;;;6143562;23;20059;-78
2024/04/06 10:48:26;;;;;;;6.65;1.70;;;;;;;;;;6149463;23;20460;-80
2024/04/06 10:50:51;;;;;;;4.88;1.63;;;;;;;;;;6118484;23;20021;-80
2024/04/06 10:53:17;;;;;;;5.43;1.80;;;;;;;;;;6143431;23;20028;-80
2024/04/06 10:55:44;;;;;;;3.90;1.80;;;;;;;;;;6145096;23;20021;-79
2024/04/06 10:58:10;;;;;;;4.30;1.60;;;;;;;;;;6142186;23;20024;-80
2024/04/06 11:00:38;;;;;;;3.42;1.50;;;;;;;;;;6150123;23;20087;-77
2024/04/06 11:03:05;;;;;;;4.20;1.70;;;;;;;;;;6117718;23;20731;-77
2024/04/06 11:05:32;;;;;;;4.68;1.55;;;;;;;;;;6126280;23;20021;-78
2024/04/06 11:07:58;;;;;;;3.10;1.40;;;;;;;;;;6122416;23;20021;-81
2024/04/06 11:10:23;;;;;;;4.68;1.38;;;;;;;;;;6138545;23;20044;-79
2024/04/06 11:12:49;;;;;;;4.50;1.60;;;;;;;;;;6151322;23;20024;-79
2024/04/06 11:15:15;;;;;;;5.25;1.63;;;;;;;;;;6144195;23;20513;-80
2024/04/06 11:17:40;;;;;;;5.05;1.55;;;;;;;;;;6151083;23;20029;-77
2024/04/06 11:20:06;;;;;;;3.55;1.60;;;;;;;;;;6123205;23;20096;-78
2024/04/06 11:22:32;;;;;;;5.13;1.73;;;;;;;;;;6117509;23;20545;-80
2024/04/06 11:24:57;;;;;;;2.17;1.38;;;;;;;;;;6146918;23;20040;-75
2024/04/06 11:27:24;;;;;;;4.55;1.35;;;;;;;;;;6119438;23;20407;-79
2024/04/06 11:29:49;;;;;;;3.05;1.48;;;;;;;;;;6151138;23;20025;-79
2024/04/06 11:32:22;;;;;;;6.78;1.70;;;;;;;;;;6119468;23;20159;-80
2024/04/06 11:34:48;;;;;;;3.92;1.40;;;;;;;;;;6149600;23;20021;-79
2024/04/06 11:37:15;;;;;;;3.13;1.50;;;;;;;;;;6144536;23;20032;-81
2024/04/06 11:39:40;;;;;;;4.43;1.80;;;;;;;;;;6142171;23;20340;-79
2024/04/06 11:42:06;;;;;;;5.25;1.60;;;;;;;;;;6125800;23;20080;-81
2024/04/06 11:44:31;;;;;;;3.80;1.60;;;;;;;;;;6119587;23;20451;-78
2024/04/06 11:46:57;;;;;;;3.45;1.45;;;;;;;;;;6151426;23;20696;-80
2024/04/06 11:49:22;;;;;;;4.28;1.50;;;;;;;;;;6148159;23;20028;-77
2024/04/06 11:51:48;;;;;;;4.00;1.60;;;;;;;;;;6138598;23;20021;-79
2024/04/06 11:54:13;;;;;;;5.88;1.48;;;;;;;;;;6148841;23;20056;-77
2024/04/06 11:56:42;;;;;;;5.00;1.60;;;;;;;;;;6144345;23;20072;-78
2024/04/06 11:59:07;;;;;;;3.55;1.40;;;;;;;;;;6150312;23;20025;-78
2024/04/06 12:01:33;;;;;;;4.38;1.40;;;;;;;;;;6151544;23;20028;-78
2024/04/06 12:03:58;;;;;;;4.25;1.60;;;;;;;;;;6139561;23;20025;-79
2024/04/06 12:06:24;;;;;;;4.00;1.30;;;;;;;;;;6145396;23;20107;-78
2024/04/06 12:08:51;;;;;;;4.32;1.63;;;;;;;;;;6119525;23;20100;-78
2024/04/06 12:11:17;;;;;;;2.78;1.50;;;;;;;;;;6150123;23;20080;-78
2024/04/06 12:13:42;;;;;;;3.70;1.60;;;;;;;;;;6144484;23;20051;-73
2024/04/06 12:16:08;;;;;;;4.63;1.60;;;;;;;;;;6125333;23;20021;-78
2024/04/06 12:18:33;;;;;;;6.05;1.42;;;;;;;;;;6146296;23;20021;-70
2024/04/06 12:20:59;;;;;;;3.13;1.23;;;;;;;;;;6112668;23;20025;-70
2024/04/06 12:23:24;;;;;;;2.90;1.25;;;;;;;;;;6148028;23;20029;-70
2024/04/06 12:25:49;;;;;;;2.95;1.40;;;;;;;;;;6142999;23;20021;-71
2024/04/06 12:28:15;;;;;;;3.30;1.33;;;;;;;;;;6148392;23;20025;-70
2024/04/06 12:30:40;;;;;;;2.83;1.30;;;;;;;;;;6150404;23;20100;-71
2024/04/06 12:33:06;;;;;;;2.42;1.38;;;;;;;;;;6136828;23;20200;-70
2024/04/06 12:35:31;;;;;;;6.93;1.40;;;;;;;;;;6120509;23;20025;-70
2024/04/06 12:37:57;;;;;;;4.45;1.48;;;;;;;;;;6141403;23;20064;-70
2024/04/06 12:40:22;;;;;;;3.55;1.38;;;;;;;;;;6148985;23;20034;-71
2024/04/06 12:42:48;;;;;;;2.58;1.40;;;;;;;;;;6148559;23;20448;-70
2024/04/06 12:45:13;;;;;;;2.90;1.58;;;;;;;;;;6142370;23;20025;-71
2024/04/06 12:47:39;;;;;;;8.77;1.30;;;;;;;;;;6121579;23;20455;-72
2024/04/06 12:50:04;;;;;;;3.08;1.20;;;;;;;;;;6138467;23;20023;-71
2024/04/06 12:52:32;;;;;;;3.35;1.30;;;;;;;;;;6150379;23;20605;-70
2024/04/06 12:54:58;;;;;;;3.17;1.20;;;;;;;;;;6144996;23;20452;-72
2024/04/06 12:57:43;;;;;;;2.75;1.50;;;;;;;;;;6150078;23;20021;-71
2024/04/06 13:00:09;;;;;;;3.92;1.25;;;;;;;;;;6146130;23;20032;-71
2024/04/06 13:02:35;;;;;;;4.07;1.33;;;;;;;;;;6139937;23;20017;-71
2024/04/06 13:05:01;;;;;;;2.08;1.20;;;;;;;;;;6150308;23;20703;-71
2024/04/06 13:07:27;;;;;;;6.82;1.50;;;;;;;;;;6143510;23;20075;-72
2024/04/06 13:09:59;;;;;;;2.15;1.30;;;;;;;;;;6150566;23;20036;-72
2024/04/06 13:12:30;;;;;;;4.05;1.23;;;;;;;;;;6125919;23;20048;-70
2024/04/06 13:14:57;;;;;;;3.28;1.10;;;;;;;;;;6143083;23;20029;-69
2024/04/06 13:17:22;;;;;;;4.78;1.15;;;;;;;;;;6150562;23;20103;-71
2024/04/06 13:19:47;;;;;;;4.57;1.25;;;;;;;;;;6144215;23;20459;-69
2024/04/06 13:22:13;;;;;;;3.08;1.23;;;;;;;;;;6125168;23;20043;-70
2024/04/06 13:24:38;;;;;;;2.67;1.17;;;;;;;;;;6140123;23;20017;-69
2024/04/06 13:27:04;;;;;;;2.55;0.95;;;;;;;;;;6148206;23;20075;-69
2024/04/06 13:29:30;;;;;;;4.95;1.20;;;;;;;;;;6126688;23;20016;-69
2024/04/06 13:31:55;;;;;;;5.65;1.33;;;;;;;;;;6144366;23;20021;-70
2024/04/06 13:34:21;;;;;;;2.85;1.25;;;;;;;;;;6149742;23;20021;-69
2024/04/06 13:36:46;;;;;;;3.60;1.30;;;;;;;;;;6137050;23;21027;-69
2024/04/06 13:39:12;;;;;;;2.88;1.23;;;;;;;;;;6145586;23;20352;-70
2024/04/06 13:41:37;;;;;;;3.15;1.50;;;;;;;;;;6150634;23;20451;-70
2024/04/06 13:44:03;;;;;;;3.88;1.30;;;;;;;;;;6143388;23;20099;-69
2024/04/06 13:46:30;;;;;;;5.10;1.20;;;;;;;;;;6150316;23;20025;-70
2024/04/06 13:48:56;;;;;;;7.50;1.13;;;;;;;;;;6142435;23;20025;-69
2024/04/06 13:51:21;;;;;;;1.70;1.10;;;;;;;;;;6145713;23;20021;-69
2024/04/06 13:53:47;;;;;;;2.22;1.00;;;;;;;;;;6145690;23;20033;-71
2024/04/06 13:56:12;;;;;;;2.30;1.20;;;;;;;;;;6142737;23;20028;-71
2024/04/06 13:58:38;;;;;;;2.65;1.10;;;;;;;;;;6150940;23;20084;-71
2024/04/06 14:01:03;;;;;;;2.97;1.38;;;;;;;;;;6143673;23;20029;-69
2024/04/06 14:03:28;;;;;;;3.22;1.48;;;;;;;;;;6146894;23;20025;-70
2024/04/06 14:05:55;;;;;;;2.88;1.13;;;;;;;;;;6145138;23;20025;-68
2024/04/06 14:08:20;;;;;;;4.55;1.45;;;;;;;;;;6136557;23;20028;-69
2024/04/06 14:10:46;;;;;;;7.28;1.40;;;;;;;;;;6148013;23;20444;-69
2024/04/06 14:13:11;;;;;;;5.65;1.23;;;;;;;;;;6141718;23;20025;-68
2024/04/06 14:15:37;;;;;;;6.63;1.60;;;;;;;;;;6150087;23;20045;-68
2024/04/06 14:18:04;;;;;;;5.82;1.80;;;;;;;;;;6144200;23;20032;-70
2024/04/06 14:20:29;;;;;;;3.13;1.42;;;;;;;;;;6144979;23;20487;-68
2024/04/06 14:22:54;;;;;;;4.15;1.27;;;;;;;;;;6145429;23;20023;-69
2024/04/06 14:25:20;;;;;;;5.47;1.13;;;;;;;;;;6142474;23;20103;-69
2024/04/06 14:27:46;;;;;;;8.07;1.40;;;;;;;;;;6175198;23;20471;-68
2024/04/06 14:30:30;;;;;;;3.45;1.80;;;;;;;;;;6143041;23;20032;-69
2024/04/06 14:32:57;;;;;;;4.43;1.83;;;;;;;;;;6125113;23;20037;-68
2024/04/06 14:35:22;;;;;;;4.57;1.40;;;;;;;;;;6142519;23;20021;-69